Time;durP1;ratioP1;P1;durP2;ratioP2;P2;SDS_P1;SDS_P2;PMS_P1;PMS_P2;Temp;Humidity;BMP_temperature;BMP_pressure;BME280_temperature;BME280_humidity;BME280_pressure;Samples;Min_cycle;Max_cycle;Signal;HPM_P1;HPM_P2
2023/09/09 00:02:04;;;;;;;21.67;2.30;;;19.70;20.80;;;;;;5012905;28;20198;-70
2023/09/09 00:04:31;;;;;;;0.97;0.70;;;19.30;21.70;;;;;;5012176;28;20591;-69
2023/09/09 00:07:02;;;;;;;3.47;0.70;;;19.40;20.90;;;;;;5012729;28;20170;-70
2023/09/09 00:09:30;;;;;;;0.80;0.50;;;20.00;20.00;;;;;;5011974;28;20526;-69
2023/09/09 00:11:58;;;;;;;1.43;0.80;;;19.90;19.10;;;;;;5013174;28;20190;-68
2023/09/09 00:14:25;;;;;;;2.70;1.67;;;20.30;18.20;;;;;;5015466;28;20189;-67
2023/09/09 00:16:52;;;;;;;2.43;0.70;;;21.00;18.80;;;;;;5012927;28;20789;-67
2023/09/09 00:19:21;;;;;;;2.23;0.80;;;21.00;21.60;;;;;;5013041;28;20265;-66
2023/09/09 00:21:49;;;;;;;2.53;0.80;;;20.50;17.00;;;;;;5013786;28;20312;-66
2023/09/09 00:24:17;;;;;;;0.53;0.50;;;20.90;17.00;;;;;;5013574;28;20312;-67
2023/09/09 00:26:44;;;;;;;1.27;0.73;;;21.30;16.50;;;;;;5013754;28;20704;-67
2023/09/09 00:29:12;;;;;;;2.07;0.70;;;21.10;11.80;;;;;;5013675;28;20321;-66
2023/09/09 00:31:39;;;;;;;2.53;0.80;;;20.90;14.90;;;;;;5013603;28;20713;-66
2023/09/09 00:34:07;;;;;;;1.37;0.67;;;21.50;14.50;;;;;;5013369;28;20178;-67
2023/09/09 00:36:34;;;;;;;2.80;0.50;;;21.50;13.90;;;;;;5013503;28;20192;-67
2023/09/09 00:39:04;;;;;;;1.83;0.67;;;21.10;12.20;;;;;;5013274;28;20629;-69
2023/09/09 00:41:31;;;;;;;4.20;0.67;;;20.90;13.90;;;;;;5013135;28;20661;-67
2023/09/09 00:43:58;;;;;;;0.77;0.60;;;21.70;14.40;;;;;;5012962;28;20296;-66
2023/09/09 00:46:26;;;;;;;1.17;0.70;;;21.90;13.40;;;;;;5013782;28;20170;-68
2023/09/09 00:48:54;;;;;;;2.60;0.80;;;21.80;11.80;;;;;;5013187;28;20189;-67
2023/09/09 00:51:22;;;;;;;1.60;0.60;;;22.00;11.50;;;;;;5013269;28;20170;-68
2023/09/09 00:53:49;;;;;;;2.20;0.50;;;21.70;10.40;;;;;;5013148;28;20634;-68
2023/09/09 00:56:17;;;;;;;3.13;0.80;;;21.90;11.30;;;;;;5013214;28;20235;-67
2023/09/09 00:58:44;;;;;;;1.27;0.60;;;21.60;8.60;;;;;;5012950;28;20324;-66
2023/09/09 01:01:11;;;;;;;2.60;0.80;;;21.60;6.40;;;;;;5013303;28;20170;-68
2023/09/09 01:03:39;;;;;;;2.70;0.80;;;21.80;7.80;;;;;;5013091;28;20628;-67
2023/09/09 01:06:06;;;;;;;2.10;0.60;;;22.40;6.90;;;;;;5013213;28;20170;-68
2023/09/09 01:08:34;;;;;;;1.63;0.60;;;22.20;5.50;;;;;;5013029;28;20181;-67
2023/09/09 01:11:01;;;;;;;2.73;0.80;;;22.00;6.10;;;;;;5013050;28;20173;-67
2023/09/09 01:13:29;;;;;;;2.90;0.70;;;21.70;4.60;;;;;;5012927;28;20174;-67
2023/09/09 01:15:57;;;;;;;1.67;0.80;;;21.90;5.90;;;;;;5012916;28;20511;-67
2023/09/09 01:18:24;;;;;;;2.57;0.73;;;22.60;7.50;;;;;;5012958;28;20681;-67
2023/09/09 01:21:10;;;;;;;2.87;0.80;;;22.20;2.00;;;;;;5012949;28;20639;-67
2023/09/09 01:23:38;;;;;;;1.60;0.60;;;22.30;4.30;;;;;;5013183;28;20198;-66
2023/09/09 01:26:05;;;;;;;1.13;0.73;;;22.90;4.20;;;;;;5012823;28;20235;-68
2023/09/09 01:28:33;;;;;;;1.20;0.73;;;22.80;3.70;;;;;;5013051;28;20189;-68
2023/09/09 01:31:00;;;;;;;1.97;0.70;;;22.90;2.90;;;;;;5012874;28;20181;-69
2023/09/09 01:33:27;;;;;;;4.37;1.07;;;22.90;2.40;;;;;;5012916;28;20212;-68
2023/09/09 01:35:55;;;;;;;1.30;0.80;;;22.90;4.20;;;;;;5013011;28;20574;-66
2023/09/09 01:38:23;;;;;;;2.47;0.80;;;22.50;1.00;;;;;;5012871;28;20731;-67
2023/09/09 01:40:50;;;;;;;1.10;0.53;;;22.90;1.50;;;;;;5012857;28;20196;-66
2023/09/09 01:43:17;;;;;;;4.80;0.63;;;23.00;2.20;;;;;;5012694;28;20598;-67
2023/09/09 01:45:44;;;;;;;1.27;0.80;;;22.90;1.00;;;;;;5012732;28;20693;-68
2023/09/09 01:48:12;;;;;;;3.03;0.73;;;22.30;1.00;;;;;;5012823;28;20352;-67
2023/09/09 01:50:39;;;;;;;2.40;0.60;;;22.50;1.00;;;;;;4995296;28;20181;-69
2023/09/09 01:53:06;;;;;;;2.67;0.70;;;23.00;1.00;;;;;;5012987;28;20204;-67
2023/09/09 01:55:33;;;;;;;3.67;0.70;;;23.40;1.00;;;;;;5016317;28;20188;-67
2023/09/09 01:58:01;;;;;;;2.10;0.67;;;23.60;1.00;;;;;;4998562;28;20221;-67
2023/09/09 02:00:29;;;;;;;2.47;0.83;;;23.10;1.00;;;;;;5016453;28;20557;-67
2023/09/09 02:02:56;;;;;;;2.23;0.80;;;22.70;1.00;;;;;;5016432;28;20728;-67
2023/09/09 02:05:24;;;;;;;4.10;0.70;;;22.80;1.00;;;;;;5016142;28;20624;-67
2023/09/09 02:07:51;;;;;;;1.10;0.60;;;23.30;1.00;;;;;;5016251;28;20174;-68
2023/09/09 02:10:19;;;;;;;1.40;0.70;;;23.80;1.00;;;;;;5016040;28;20178;-67
2023/09/09 02:12:46;;;;;;;1.73;0.70;;;23.70;1.00;;;;;;5016209;28;20628;-67
2023/09/09 02:15:15;;;;;;;2.07;0.70;;;24.00;1.00;;;;;;5016234;28;20170;-67
2023/09/09 02:17:42;;;;;;;2.00;0.80;;;23.30;1.00;;;;;;5015973;28;20240;-67
2023/09/09 02:20:10;;;;;;;1.40;0.70;;;23.40;1.00;;;;;;5016004;28;20170;-67
2023/09/09 02:22:37;;;;;;;2.83;0.70;;;23.50;1.00;;;;;;5015981;28;20178;-67
2023/09/09 02:25:06;;;;;;;2.63;0.93;;;23.10;1.00;;;;;;5015971;28;20189;-67
2023/09/09 02:27:34;;;;;;;1.53;0.80;;;23.00;1.00;;;;;;5015646;28;20189;-68
2023/09/09 02:30:02;;;;;;;1.57;0.87;;;22.90;1.00;;;;;;5015773;28;20187;-67
2023/09/09 02:32:29;;;;;;;1.37;0.63;;;22.90;1.00;;;;;;5015637;28;20177;-67
2023/09/09 02:34:57;;;;;;;2.00;0.50;;;22.50;1.00;;;;;;5015650;28;20264;-67
2023/09/09 02:37:27;;;;;;;0.97;0.47;;;23.40;1.00;;;;;;5015575;28;20201;-67
2023/09/09 02:39:54;;;;;;;1.40;0.70;;;23.80;1.00;;;;;;5015707;28;20180;-67
2023/09/09 02:42:24;;;;;;;1.97;0.80;;;23.60;1.00;;;;;;5015457;28;20352;-67
2023/09/09 02:44:51;;;;;;;2.73;0.70;;;23.90;1.00;;;;;;5015848;28;20296;-67
2023/09/09 02:47:20;;;;;;;1.63;0.80;;;23.60;1.00;;;;;;5015366;28;20305;-68
2023/09/09 02:49:49;;;;;;;1.50;0.70;;;23.70;1.00;;;;;;5015546;28;20547;-67
2023/09/09 02:52:17;;;;;;;4.57;0.73;;;23.70;1.00;;;;;;5015290;28;20632;-68
2023/09/09 02:54:44;;;;;;;1.80;0.70;;;24.20;1.00;;;;;;5015047;28;20273;-67
2023/09/09 02:57:11;;;;;;;1.77;0.70;;;23.70;1.00;;;;;;5015064;28;20178;-68
2023/09/09 02:59:39;;;;;;;2.43;0.90;;;23.70;1.00;;;;;;5014932;28;20647;-67
2023/09/09 03:02:06;;;;;;;2.13;0.87;;;23.40;1.00;;;;;;5016120;28;20215;-68
2023/09/09 03:04:33;;;;;;;4.20;0.70;;;23.50;1.00;;;;;;5014996;28;20209;-69
2023/09/09 03:07:01;;;;;;;2.30;0.90;;;23.00;1.00;;;;;;5015485;28;20204;-65
2023/09/09 03:09:29;;;;;;;1.57;0.80;;;23.10;1.00;;;;;;5016131;28;20650;-68
2023/09/09 03:11:57;;;;;;;3.67;1.10;;;23.60;1.00;;;;;;5015025;28;20539;-69
2023/09/09 03:14:24;;;;;;;2.17;0.77;;;23.50;1.00;;;;;;5014816;28;20178;-67
2023/09/09 03:16:52;;;;;;;2.70;0.80;;;23.80;1.00;;;;;;5015206;28;20170;-68
2023/09/09 03:19:19;;;;;;;2.93;0.93;;;23.20;1.00;;;;;;5014921;28;20170;-67
2023/09/09 03:21:47;;;;;;;2.07;0.80;;;22.80;1.00;;;;;;5015143;28;20174;-67
2023/09/09 03:24:14;;;;;;;2.70;1.00;;;22.80;1.00;;;;;;5014693;28;20232;-67
2023/09/09 03:26:42;;;;;;;2.80;0.67;;;23.20;1.00;;;;;;5014599;28;20181;-67
2023/09/09 03:29:09;;;;;;;2.43;0.80;;;23.60;1.00;;;;;;5014523;28;20519;-69
2023/09/09 03:31:36;;;;;;;2.80;0.60;;;23.30;1.00;;;;;;5014505;28;20177;-68
2023/09/09 03:34:04;;;;;;;2.37;0.70;;;23.30;1.00;;;;;;5014482;28;20186;-68
2023/09/09 03:36:32;;;;;;;2.07;0.80;;;22.90;1.00;;;;;;5014947;28;20182;-68
2023/09/09 03:39:03;;;;;;;5.47;1.00;;;23.50;1.00;;;;;;4996658;28;20190;-68
2023/09/09 03:41:31;;;;;;;3.73;1.00;;;23.40;1.00;;;;;;5014959;28;20170;-68
2023/09/09 03:43:58;;;;;;;2.43;0.70;;;23.60;1.00;;;;;;5014305;28;20214;-68
2023/09/09 03:46:26;;;;;;;3.47;1.10;;;24.00;1.00;;;;;;5014376;28;20225;-68
2023/09/09 03:48:53;;;;;;;1.80;0.53;;;23.80;1.00;;;;;;5014405;28;20174;-68
2023/09/09 03:51:21;;;;;;;2.43;1.00;;;23.70;1.00;;;;;;5014146;28;20257;-68
2023/09/09 03:53:48;;;;;;;5.07;0.93;;;23.90;1.00;;;;;;5014049;28;20182;-68
2023/09/09 03:56:19;;;;;;;1.37;0.67;;;23.90;1.00;;;;;;5014383;28;20174;-68
2023/09/09 03:58:46;;;;;;;6.27;0.97;;;23.70;1.00;;;;;;5013916;28;20232;-68
2023/09/09 04:01:14;;;;;;;2.60;0.63;;;23.40;1.00;;;;;;5014236;28;20169;-68
2023/09/09 04:03:41;;;;;;;1.20;0.70;;;23.10;1.00;;;;;;4996334;28;20640;-68
2023/09/09 04:06:11;;;;;;;3.57;0.80;;;23.00;1.00;;;;;;5014580;28;20178;-70
2023/09/09 04:08:39;;;;;;;2.10;0.80;;;22.50;1.00;;;;;;5013770;28;20196;-68
2023/09/09 04:11:07;;;;;;;1.77;0.70;;;22.10;1.00;;;;;;4996369;28;20227;-68
2023/09/09 04:13:37;;;;;;;4.10;0.77;;;22.40;1.00;;;;;;5014375;28;20581;-67
2023/09/09 04:16:05;;;;;;;2.53;0.80;;;22.70;1.00;;;;;;4996155;28;20182;-68
2023/09/09 04:18:32;;;;;;;2.37;0.70;;;22.70;1.00;;;;;;5013635;28;20236;-68
2023/09/09 04:20:59;;;;;;;2.43;0.90;;;22.80;1.00;;;;;;5013625;28;20534;-68
2023/09/09 04:23:27;;;;;;;2.43;0.80;;;22.60;1.00;;;;;;5013907;28;20224;-68
2023/09/09 04:25:54;;;;;;;3.13;0.93;;;22.30;1.00;;;;;;5013614;28;20238;-68
2023/09/09 04:28:21;;;;;;;2.10;0.70;;;22.60;1.00;;;;;;5013647;28;20261;-68
2023/09/09 04:30:49;;;;;;;1.90;0.70;;;22.30;1.00;;;;;;5013689;28;20181;-68
2023/09/09 04:33:16;;;;;;;1.83;0.70;;;22.10;1.00;;;;;;5013389;28;20268;-68
2023/09/09 04:35:44;;;;;;;1.73;0.80;;;22.10;1.00;;;;;;5013364;28;20188;-68
2023/09/09 04:38:11;;;;;;;1.63;0.60;;;21.90;1.00;;;;;;5013785;28;20170;-68
2023/09/09 04:40:40;;;;;;;3.17;1.07;;;21.80;1.00;;;;;;5013250;28;20260;-68
2023/09/09 04:43:08;;;;;;;1.17;0.50;;;21.80;1.00;;;;;;5013476;28;20213;-68
2023/09/09 04:45:35;;;;;;;2.27;0.70;;;21.80;1.00;;;;;;5013082;28;20548;-68
2023/09/09 04:48:02;;;;;;;1.53;0.80;;;21.60;1.00;;;;;;5013465;28;20178;-68
2023/09/09 04:50:30;;;;;;;1.37;0.70;;;21.70;1.00;;;;;;5013231;28;20620;-68
2023/09/09 04:52:57;;;;;;;4.57;1.00;;;21.50;1.00;;;;;;5013272;28;20236;-68
2023/09/09 04:55:25;;;;;;;1.93;0.77;;;21.10;1.00;;;;;;5013032;28;20258;-68
2023/09/09 04:57:52;;;;;;;3.73;1.17;;;21.00;1.00;;;;;;5013045;28;20588;-68
2023/09/09 05:00:19;;;;;;;2.03;0.80;;;21.10;1.00;;;;;;5013176;28;20175;-67
2023/09/09 05:02:47;;;;;;;3.57;1.27;;;21.00;1.00;;;;;;5013011;28;20182;-68
2023/09/09 05:05:14;;;;;;;3.83;0.80;;;20.90;1.00;;;;;;4995380;28;20341;-68
2023/09/09 05:07:41;;;;;;;2.20;0.90;;;20.70;1.00;;;;;;5012957;28;20688;-67
2023/09/09 05:10:09;;;;;;;0.90;0.70;;;20.60;1.00;;;;;;5012980;28;20178;-68
2023/09/09 05:12:36;;;;;;;3.03;0.70;;;20.60;1.00;;;;;;5013002;28;20178;-67
2023/09/09 05:15:10;;;;;;;2.07;0.80;;;20.80;1.00;;;;;;5012751;28;20190;-69
2023/09/09 05:17:37;;;;;;;1.93;0.80;;;20.90;1.00;;;;;;5013015;28;20178;-68
2023/09/09 05:20:05;;;;;;;3.80;1.23;;;20.80;1.00;;;;;;5013030;28;20182;-68
2023/09/09 05:22:32;;;;;;;3.37;1.10;;;20.90;1.00;;;;;;5012902;28;20188;-68
2023/09/09 05:25:00;;;;;;;3.60;1.00;;;20.90;1.00;;;;;;5013105;28;20216;-69
2023/09/09 05:27:27;;;;;;;1.47;0.70;;;20.90;1.00;;;;;;5012959;28;20587;-67
2023/09/09 05:29:54;;;;;;;2.57;0.83;;;20.50;1.00;;;;;;5016008;28;20190;-68
2023/09/09 05:32:22;;;;;;;3.60;0.90;;;20.30;1.00;;;;;;5016798;28;20180;-68
2023/09/09 05:34:49;;;;;;;4.07;0.83;;;20.20;1.00;;;;;;5016780;28;20232;-67
2023/09/09 05:37:16;;;;;;;4.27;1.23;;;20.30;1.00;;;;;;5016265;28;20239;-68
2023/09/09 05:39:44;;;;;;;1.73;0.80;;;20.30;1.00;;;;;;5016377;28;20184;-67
2023/09/09 05:42:11;;;;;;;2.27;0.87;;;20.50;1.00;;;;;;5016263;28;20203;-69
2023/09/09 05:44:38;;;;;;;1.53;0.83;;;20.60;1.00;;;;;;5016453;28;20274;-68
2023/09/09 05:47:08;;;;;;;2.33;1.07;;;20.50;2.80;;;;;;5016400;28;20232;-67
2023/09/09 05:49:36;;;;;;;3.73;1.10;;;20.40;5.30;;;;;;5016781;28;20184;-68
2023/09/09 05:52:03;;;;;;;2.57;1.37;;;20.30;7.90;;;;;;5016456;28;20180;-67
2023/09/09 05:54:31;;;;;;;2.33;1.20;;;20.10;8.10;;;;;;5016120;28;20245;-67
2023/09/09 05:56:58;;;;;;;2.47;1.20;;;19.90;9.40;;;;;;5016195;28;20641;-68
2023/09/09 05:59:25;;;;;;;6.50;1.20;;;20.00;10.30;;;;;;5016077;28;20285;-67
2023/09/09 06:01:53;;;;;;;1.30;0.70;;;19.90;10.80;;;;;;5016156;28;20673;-67
2023/09/09 06:04:20;;;;;;;3.83;1.20;;;19.80;11.30;;;;;;5016183;28;20209;-67
2023/09/09 06:06:49;;;;;;;5.17;1.20;;;19.80;12.40;;;;;;5015913;28;20655;-68
2023/09/09 06:09:17;;;;;;;2.37;0.90;;;19.60;12.50;;;;;;5016080;28;20215;-68
2023/09/09 06:11:44;;;;;;;3.77;1.30;;;19.60;13.80;;;;;;5015959;28;20177;-67
2023/09/09 06:14:11;;;;;;;2.67;0.87;;;19.50;14.50;;;;;;5015979;28;20259;-68
2023/09/09 06:16:38;;;;;;;4.53;1.00;;;19.40;14.50;;;;;;5015978;28;20177;-68
2023/09/09 06:19:06;;;;;;;4.30;1.10;;;19.30;14.10;;;;;;5016071;28;20257;-68
2023/09/09 06:21:33;;;;;;;3.90;1.40;;;19.20;15.50;;;;;;4998321;28;20593;-68
2023/09/09 06:24:02;;;;;;;3.47;1.10;;;19.00;14.80;;;;;;4998432;28;20745;-68
2023/09/09 06:26:32;;;;;;;3.33;1.23;;;18.80;15.70;;;;;;5015821;28;20186;-69
2023/09/09 06:29:00;;;;;;;3.10;1.03;;;18.50;16.80;;;;;;5015606;28;20189;-68
2023/09/09 06:31:28;;;;;;;7.03;2.03;;;18.60;17.90;;;;;;5015584;28;20201;-68
2023/09/09 06:33:55;;;;;;;2.77;1.43;;;18.60;18.80;;;;;;5015379;28;20260;-67
2023/09/09 06:36:22;;;;;;;2.83;1.23;;;18.60;19.00;;;;;;5015519;28;20177;-68
2023/09/09 06:38:50;;;;;;;3.77;1.50;;;18.50;18.80;;;;;;5015316;28;20193;-68
2023/09/09 06:41:18;;;;;;;3.17;1.00;;;18.30;19.20;;;;;;5015513;28;20547;-68
2023/09/09 06:43:46;;;;;;;2.87;1.20;;;18.10;20.40;;;;;;4997825;28;20209;-68
2023/09/09 06:46:13;;;;;;;4.40;1.30;;;18.10;21.80;;;;;;5015528;28;20174;-68
2023/09/09 06:48:41;;;;;;;2.27;0.87;;;18.00;21.90;;;;;;5015087;28;20171;-68
2023/09/09 06:51:09;;;;;;;3.80;1.13;;;18.10;22.00;;;;;;5015189;28;20175;-68
2023/09/09 06:53:37;;;;;;;3.37;1.30;;;18.20;22.80;;;;;;5014892;28;20600;-68
2023/09/09 06:56:04;;;;;;;3.63;0.97;;;18.20;23.30;;;;;;5015261;28;20546;-68
2023/09/09 06:58:32;;;;;;;3.43;1.20;;;18.10;23.40;;;;;;5014795;28;20534;-67
2023/09/09 07:01:02;;;;;;;5.30;1.57;;;17.90;24.20;;;;;;5015236;28;20550;-69
2023/09/09 07:03:29;;;;;;;2.80;1.07;;;17.90;25.70;;;;;;4997433;28;20586;-68
2023/09/09 07:06:00;;;;;;;3.20;0.90;;;17.70;25.20;;;;;;5015083;28;20182;-68
2023/09/09 07:08:28;;;;;;;5.27;1.27;;;17.40;25.80;;;;;;4997121;28;20239;-68
2023/09/09 07:10:56;;;;;;;4.13;1.20;;;17.30;28.30;;;;;;4997542;28;20182;-67
2023/09/09 07:13:24;;;;;;;4.10;1.30;;;17.20;29.00;;;;;;5014624;28;20182;-67
2023/09/09 07:15:54;;;;;;;3.13;1.17;;;17.10;28.50;;;;;;5014830;28;20185;-68
2023/09/09 07:18:22;;;;;;;2.93;1.03;;;16.90;28.60;;;;;;5014704;28;20178;-67
2023/09/09 07:20:49;;;;;;;1.83;1.07;;;16.60;26.80;;;;;;5014932;28;20224;-67
2023/09/09 07:23:18;;;;;;;2.97;1.10;;;16.50;28.70;;;;;;5014707;28;20206;-67
2023/09/09 07:25:48;;;;;;;3.87;1.20;;;16.40;29.80;;;;;;5014888;28;20182;-67
2023/09/09 07:28:16;;;;;;;2.90;1.00;;;16.20;29.70;;;;;;5014745;28;20589;-67
2023/09/09 07:30:43;;;;;;;2.47;1.00;;;16.20;30.80;;;;;;5014589;28;20185;-67
2023/09/09 07:33:11;;;;;;;2.70;1.20;;;16.10;30.50;;;;;;5014518;28;20178;-67
2023/09/09 07:35:38;;;;;;;4.00;1.30;;;16.00;32.30;;;;;;5014417;28;20178;-67
2023/09/09 07:38:06;;;;;;;3.73;1.40;;;15.90;33.70;;;;;;5014236;28;20572;-67
2023/09/09 07:40:33;;;;;;;3.20;1.10;;;15.80;35.90;;;;;;5014124;28;20178;-67
2023/09/09 07:43:01;;;;;;;5.57;1.27;;;15.70;37.20;;;;;;5014312;28;20188;-67
2023/09/09 07:45:28;;;;;;;4.63;1.30;;;15.60;37.70;;;;;;5014183;28;20190;-67
2023/09/09 07:47:57;;;;;;;3.77;1.00;;;15.60;39.50;;;;;;5014033;28;20174;-67
2023/09/09 07:50:24;;;;;;;3.27;1.20;;;15.50;40.10;;;;;;5014169;28;20185;-67
2023/09/09 07:52:52;;;;;;;2.07;1.23;;;15.40;40.80;;;;;;5013646;28;20186;-67
2023/09/09 07:55:19;;;;;;;3.63;1.50;;;15.30;44.90;;;;;;4996955;28;20257;-67
2023/09/09 07:57:47;;;;;;;7.33;1.60;;;15.20;46.80;;;;;;5013778;28;20230;-67
2023/09/09 08:00:14;;;;;;;5.57;1.47;;;15.10;45.20;;;;;;5013923;28;20224;-67
2023/09/09 08:02:42;;;;;;;4.10;1.80;;;15.00;49.90;;;;;;5013788;28;20181;-67
2023/09/09 08:05:09;;;;;;;2.53;1.30;;;15.00;50.40;;;;;;5013455;28;20663;-67
2023/09/09 08:07:36;;;;;;;5.23;2.03;;;14.80;51.90;;;;;;5013873;28;20622;-67
2023/09/09 08:10:04;;;;;;;3.53;1.37;;;14.70;55.40;;;;;;5013568;28;20182;-67
2023/09/09 08:12:31;;;;;;;6.00;1.60;;;14.70;61.80;;;;;;5013787;28;20170;-67
2023/09/09 08:15:09;;;;;;;4.47;2.17;;;14.70;60.80;;;;;;5013740;28;20219;-67
2023/09/09 08:17:37;;;;;;;3.67;2.00;;;14.50;65.30;;;;;;5013724;28;20219;-67
2023/09/09 08:20:07;;;;;;;5.57;2.40;;;14.40;70.10;;;;;;5013631;28;20166;-67
2023/09/09 08:22:38;;;;;;;4.33;2.40;;;14.40;69.90;;;;;;5013650;28;20646;-67
2023/09/09 08:25:06;;;;;;;14.00;2.60;;;14.40;79.70;;;;;;5013391;28;20220;-68
2023/09/09 08:27:33;;;;;;;5.30;2.40;;;14.30;84.70;;;;;;5013521;28;20587;-68
2023/09/09 08:30:01;;;;;;;6.77;2.37;;;14.20;90.00;;;;;;5013691;28;20184;-67
2023/09/09 08:32:29;;;;;;;9.17;2.40;;;14.10;92.20;;;;;;5013592;28;20231;-67
2023/09/09 08:34:56;;;;;;;5.17;2.40;;;14.00;96.20;;;;;;5013341;28;20181;-68
2023/09/09 08:37:24;;;;;;;4.17;1.90;;;13.90;97.80;;;;;;5013304;28;20670;-67
2023/09/09 08:39:55;;;;;;;5.70;2.00;;;13.90;98.70;;;;;;5013277;28;20177;-67
2023/09/09 08:42:32;;;;;;;19.33;13.10;;;13.90;99.70;;;;;;5013376;28;20268;-67
2023/09/09 08:45:03;;;;;;;32.40;21.63;;;13.80;99.90;;;;;;5013082;28;20255;-67
2023/09/09 08:47:36;;;;;;;44.97;29.77;;;13.80;99.90;;;;;;5013331;28;20209;-68
2023/09/09 08:50:05;;;;;;;37.07;27.40;;;13.60;99.90;;;;;;5013448;28;20185;-68
2023/09/09 08:52:33;;;;;;;28.20;20.30;;;13.50;99.90;;;;;;5013457;28;20515;-68
2023/09/09 08:55:01;;;;;;;23.87;15.53;;;13.40;99.90;;;;;;5013204;28;20170;-67
2023/09/09 08:57:31;;;;;;;14.27;7.67;;;13.40;99.90;;;;;;5013118;28;20209;-67
2023/09/09 09:00:01;;;;;;;13.70;7.50;;;13.40;99.90;;;;;;4995833;28;20627;-67
2023/09/09 09:02:29;;;;;;;9.20;4.50;;;13.40;99.90;;;;;;5012620;28;20624;-67
2023/09/09 09:04:58;;;;;;;6.17;3.00;;;13.40;99.90;;;;;;5012614;28;20315;-68
2023/09/09 09:07:27;;;;;;;5.63;2.47;;;13.60;99.90;;;;;;5013142;28;20188;-67
2023/09/09 09:09:55;;;;;;;5.20;1.97;;;13.70;96.50;;;;;;5013215;28;20661;-68
2023/09/09 09:12:24;;;;;;;9.20;1.90;;;13.80;92.20;;;;;;5013197;28;20635;-68
2023/09/09 09:14:51;;;;;;;3.97;1.60;;;13.80;85.90;;;;;;4995493;28;20640;-67
2023/09/09 09:17:20;;;;;;;2.63;1.50;;;13.90;87.20;;;;;;5012962;28;20177;-67
2023/09/09 09:19:48;;;;;;;5.73;1.90;;;13.80;86.10;;;;;;5013282;28;20235;-67
2023/09/09 09:22:16;;;;;;;8.13;2.77;;;13.80;81.90;;;;;;5013444;28;20193;-67
2023/09/09 09:24:45;;;;;;;4.77;2.50;;;13.80;80.20;;;;;;5013104;28;20221;-67
2023/09/09 09:27:14;;;;;;;9.57;2.70;;;13.70;81.60;;;;;;5012913;28;20185;-67
2023/09/09 09:29:47;;;;;;;5.93;2.60;;;13.70;80.80;;;;;;5013023;28;20708;-66
2023/09/09 09:32:18;;;;;;;6.17;2.73;;;13.70;80.20;;;;;;5012923;28;20666;-67
2023/09/09 09:34:50;;;;;;;4.50;2.50;;;13.70;80.50;;;;;;5012887;28;20183;-66
2023/09/09 09:37:17;;;;;;;5.47;1.53;;;13.70;83.50;;;;;;5012764;28;20635;-67
2023/09/09 09:39:46;;;;;;;4.47;1.57;;;13.60;82.80;;;;;;5012914;28;20177;-66
2023/09/09 09:42:14;;;;;;;5.47;1.50;;;13.60;79.90;;;;;;5012885;28;20541;-67
2023/09/09 09:44:42;;;;;;;5.20;1.53;;;13.60;80.40;;;;;;5012935;28;20223;-68
2023/09/09 09:47:10;;;;;;;3.10;1.60;;;13.50;80.80;;;;;;4995275;28;20189;-66
2023/09/09 09:49:40;;;;;;;5.10;1.17;;;13.50;80.30;;;;;;5012969;28;20180;-67
2023/09/09 09:52:09;;;;;;;6.27;1.53;;;13.50;82.40;;;;;;5012686;28;20192;-66
2023/09/09 09:54:38;;;;;;;4.10;1.43;;;13.40;82.40;;;;;;5012769;28;20187;-67
2023/09/09 09:57:07;;;;;;;5.93;1.70;;;13.40;85.20;;;;;;5012903;28;20238;-66
2023/09/09 09:59:36;;;;;;;6.03;1.93;;;13.30;85.70;;;;;;5012621;28;20261;-66
2023/09/09 10:02:04;;;;;;;3.27;1.80;;;13.20;85.70;;;;;;5012693;28;20183;-67
2023/09/09 10:04:52;;;;;;;6.67;2.00;;;13.20;85.00;;;;;;5011857;28;20317;-68
2023/09/09 10:07:23;;;;;;;9.80;3.87;;;13.20;87.90;;;;;;5011836;28;20180;-67
2023/09/09 10:10:00;;;;;;;6.27;1.90;;;13.10;87.80;;;;;;5012060;28;20255;-67
2023/09/09 10:12:48;;;;;;;6.00;1.87;;;13.10;86.40;;;;;;5011880;28;20175;-67
2023/09/09 10:15:18;;;;;;;3.37;1.60;;;13.10;87.00;;;;;;5013736;28;20335;-66
2023/09/09 10:17:49;;;;;;;7.83;2.27;;;13.00;87.50;;;;;;5015223;28;20172;-68
2023/09/09 10:20:18;;;;;;;4.37;1.80;;;13.00;89.10;;;;;;5015201;28;20197;-68
2023/09/09 10:22:49;;;;;;;6.27;1.67;;;12.90;88.70;;;;;;5015290;28;20176;-69
2023/09/09 10:25:17;;;;;;;6.47;1.20;;;12.90;87.60;;;;;;5015193;28;20214;-67
2023/09/09 10:27:47;;;;;;;4.27;1.47;;;12.90;88.70;;;;;;4997168;28;20189;-67
2023/09/09 10:30:16;;;;;;;5.13;1.50;;;12.90;89.40;;;;;;5015052;28;20225;-67
2023/09/09 10:32:47;;;;;;;3.77;1.67;;;12.90;86.30;;;;;;5015240;28;20528;-67
2023/09/09 10:35:17;;;;;;;2.80;1.37;;;12.90;86.30;;;;;;5015072;28;20200;-67
2023/09/09 10:37:46;;;;;;;4.27;1.57;;;12.90;86.00;;;;;;5014860;28;20205;-67
2023/09/09 10:40:15;;;;;;;6.13;1.93;;;12.90;81.90;;;;;;5014813;28;20191;-68
2023/09/09 10:42:44;;;;;;;4.20;1.47;;;12.90;83.80;;;;;;5014898;28;20628;-66
2023/09/09 10:45:28;;;;;;;3.63;1.43;;;12.80;85.10;;;;;;5014569;28;20212;-67
2023/09/09 10:48:05;;;;;;;3.93;1.57;;;12.80;83.70;;;;;;4996913;28;20619;-67
2023/09/09 10:50:53;;;;;;;2.87;1.50;;;12.70;83.70;;;;;;5014673;28;20587;-67
2023/09/09 10:53:31;;;;;;;2.67;1.27;;;12.70;83.50;;;;;;5014645;28;20662;-68
2023/09/09 10:56:23;;;;;;;2.57;1.30;;;12.70;85.10;;;;;;5014959;28;20656;-67
2023/09/09 10:58:51;;;;;;;3.00;1.17;;;12.60;85.60;;;;;;5014582;28;20255;-67
2023/09/09 11:01:28;;;;;;;2.17;0.90;;;12.50;88.80;;;;;;5014610;28;20521;-68
2023/09/09 11:03:58;;;;;;;3.30;1.33;;;12.60;88.70;;;;;;5014562;28;20208;-67
2023/09/09 11:06:29;;;;;;;5.57;1.50;;;12.50;88.10;;;;;;5014462;28;20180;-67
2023/09/09 11:09:03;;;;;;;3.97;1.60;;;12.50;90.00;;;;;;5014203;28;20246;-67
2023/09/09 11:11:37;;;;;;;4.77;1.40;;;12.40;88.60;;;;;;5014225;28;20239;-67
2023/09/09 11:14:07;;;;;;;4.30;1.57;;;12.40;89.80;;;;;;5014159;28;20261;-67
2023/09/09 11:16:46;;;;;;;3.97;1.67;;;12.30;90.40;;;;;;5014158;28;20192;-67
2023/09/09 11:19:18;;;;;;;2.90;1.70;;;12.30;90.80;;;;;;5014039;28;20211;-67
2023/09/09 11:21:48;;;;;;;5.83;1.80;;;12.20;91.80;;;;;;5014084;28;20176;-68
2023/09/09 11:24:19;;;;;;;5.33;1.60;;;12.20;92.10;;;;;;5013410;28;20236;-67
2023/09/09 11:26:49;;;;;;;3.13;1.73;;;12.10;93.60;;;;;;4995868;28;20189;-67
2023/09/09 11:29:21;;;;;;;4.43;1.67;;;12.10;94.50;;;;;;5014076;28;20179;-67
2023/09/09 11:31:49;;;;;;;4.67;1.30;;;12.00;95.10;;;;;;5013906;28;20199;-67
2023/09/09 11:34:17;;;;;;;4.37;1.30;;;11.90;96.30;;;;;;5014052;28;20184;-67
2023/09/09 11:36:47;;;;;;;10.53;2.00;;;11.90;96.90;;;;;;5012720;28;20196;-66
2023/09/09 11:39:15;;;;;;;5.53;1.70;;;11.80;98.10;;;;;;5013890;28;20169;-67
2023/09/09 11:41:46;;;;;;;6.13;1.90;;;11.80;97.90;;;;;;4996060;28;20192;-67
2023/09/09 11:44:14;;;;;;;4.27;1.60;;;11.70;99.40;;;;;;5013513;28;20735;-67
2023/09/09 11:46:49;;;;;;;4.67;1.90;;;11.60;99.90;;;;;;4993008;28;20181;-67
2023/09/09 11:49:21;;;;;;;3.57;1.70;;;11.50;99.90;;;;;;5013556;28;20174;-67
2023/09/09 11:51:49;;;;;;;5.03;2.10;;;11.50;99.90;;;;;;5013595;28;20187;-68
2023/09/09 11:54:20;;;;;;;7.40;1.63;;;11.50;99.90;;;;;;5013226;28;20305;-67
2023/09/09 11:56:50;;;;;;;8.83;1.50;;;11.40;99.90;;;;;;4995457;28;20176;-67
2023/09/09 11:59:17;;;;;;;4.60;1.77;;;11.30;99.90;;;;;;5012710;28;20256;-68
2023/09/09 12:01:47;;;;;;;5.30;1.37;;;11.20;99.90;;;;;;5014020;28;20179;-67
2023/09/09 12:04:15;;;;;;;3.50;1.40;;;11.10;99.90;;;;;;5013835;28;20247;-67
2023/09/09 12:06:51;;;;;;;3.50;1.60;;;11.10;99.90;;;;;;5013886;28;20185;-67
2023/09/09 12:09:19;;;;;;;5.63;1.53;;;11.00;99.90;;;;;;5013003;28;20256;-67
2023/09/09 12:11:48;;;;;;;6.23;1.80;;;10.90;99.90;;;;;;4996150;28;20209;-66
2023/09/09 12:14:16;;;;;;;6.17;1.80;;;10.70;99.90;;;;;;5013260;28;20270;-69
2023/09/09 12:16:46;;;;;;;3.77;1.60;;;10.60;99.90;;;;;;5013757;28;20181;-65
2023/09/09 12:19:14;;;;;;;4.57;1.70;;;10.50;99.90;;;;;;5013457;28;20245;-67
2023/09/09 12:21:52;;;;;;;3.37;1.67;;;10.30;99.90;;;;;;5013716;28;20623;-67
2023/09/09 12:24:20;;;;;;;5.83;1.70;;;10.20;99.90;;;;;;5013492;28;20220;-69
2023/09/09 12:26:54;;;;;;;3.63;1.43;;;10.20;99.90;;;;;;5012178;28;20267;-68
2023/09/09 12:29:22;;;;;;;3.57;1.50;;;10.20;99.90;;;;;;5011678;28;20191;-68
2023/09/09 12:31:58;;;;;;;2.67;1.30;;;10.10;99.90;;;;;;5012636;28;20213;-67
2023/09/09 12:34:27;;;;;;;4.47;1.50;;;10.10;99.90;;;;;;5011886;28;20190;-68
2023/09/09 12:37:00;;;;;;;4.30;1.30;;;10.10;99.90;;;;;;5011584;28;20189;-68
2023/09/09 12:39:31;;;;;;;3.20;1.40;;;10.20;99.90;;;;;;5012634;28;20287;-68
2023/09/09 12:42:08;;;;;;;3.40;1.53;;;10.20;99.90;;;;;;5015669;28;20186;-68
2023/09/09 12:44:55;;;;;;;4.47;1.80;;;10.20;99.90;;;;;;5009455;28;20220;-68
2023/09/09 12:47:24;;;;;;;7.23;1.80;;;10.20;99.90;;;;;;5009314;28;20195;-68
2023/09/09 12:49:54;;;;;;;5.80;1.50;;;10.20;99.90;;;;;;5012826;28;20187;-67
2023/09/09 12:52:21;;;;;;;4.20;1.07;;;10.30;99.90;;;;;;4994769;28;20559;-68
2023/09/09 12:54:52;;;;;;;4.03;1.30;;;10.40;99.90;;;;;;5012597;28;20196;-68
2023/09/09 12:57:20;;;;;;;3.27;1.20;;;10.50;99.90;;;;;;4995133;28;20186;-68
2023/09/09 12:59:49;;;;;;;5.20;1.70;;;10.50;99.90;;;;;;5012851;28;20229;-68